Mount Pleasant, MS (38649)

2:38 PM CDT on July 01, 2015 (GMT -0500)
Bett | | Change Station
CLOSE
Current Station
Personal Weather Station
Location: Coldwater, MS
Elevation: 367 ft
Nearby Weather Stations

Elev 367 ft 34.69 °N, 89.76 °W | Updated 32 seconds ago

Overcast
Overcast
85.1 °F
Feels Like 95 °F
N
1.0
Wind Variable Wind from West
Gusts 2.0 mph

Today
High -- | Low -- °F
--% Chance of Precip.
Yesterday
High -- | Low -- °F
Precip. -- in
5:48 AM 8:15 PM
Full, 100% visible
Pressure 30.00 in
Visibility 9.0 miles
Clouds Mostly Cloudy 2800 ft
Overcast 25000 ft
Heat Index 95 °F
Dew Point 77 °F
Humidity 76%
Rainfall 0.00 in
Snow Depth Not available.
UV 4 out of 12
Pollen 3.40 out of 12
Air Quality Not available.
Flu Activity Not available.
METAR KOLV 011850Z 21004KT 9SM BKN028 OVC250 29/25 A3000

More Conditions Fewer Conditions

Pressure 30.00 in
Visibility 9.0 miles
Clouds Mostly Cloudy 2800 ft
Overcast 25000 ft
Heat Index 95 °F
Dew Point 77 °F
Humidity 76%
Rainfall 0.00 in
Snow Depth Not available.
UV 4 out of 12
Pollen 3.40 out of 12
Air Quality Not available.
Flu Activity Not available.
METAR KOLV 011850Z 21004KT 9SM BKN028 OVC250 29/25 A3000

More Conditions Fewer Conditions

10-Day Weather Forecast

×

Almanac

Astronomy

Jul. 01, 2015 Rise Set
Actual Time
Civil Twilight
Nautical Twilight
Astronomical Twilight
Moon
Length of Visible Light
Length of Day
Tomorrow will be .
, % of the Moon is Illuminated

Today's Extremes

State Highs State Lows

Community

WunderPhotos

Upload Photos

1,834,255 photos uploaded!

WunderBlogs® & News

Nearby

Air Quality

  Air Quality AQ Index Pollutant
Not available.

Snow Depth

Station Depth Elevation

Earthquake Activity

City Distance Mag. Time & Date
Minimum magnitude displayed is 2.5.

Coastal Water Temperatures

Place Temperature

Stations

Nearby Weather Stations

Station Location Temp. Windchill Dew Point Humidity Wind Precip. Elev Updated Type